sensor_id;sensor_type;location;lat;lon;timestamp;temperature;humidity
21502;DHT22;27639;48.674;9.242;2023-12-29T00:00:17;12.80;58.40
21502;DHT22;27639;48.674;9.242;2023-12-29T00:02:43;12.80;58.10
21502;DHT22;27639;48.674;9.242;2023-12-29T00:05:08;12.80;58.10
21502;DHT22;27639;48.674;9.242;2023-12-29T00:07:34;12.80;58.00
21502;DHT22;27639;48.674;9.242;2023-12-29T00:10:00;12.80;58.00
21502;DHT22;27639;48.674;9.242;2023-12-29T00:12:25;12.80;58.00
21502;DHT22;27639;48.674;9.242;2023-12-29T00:14:51;12.80;57.90
21502;DHT22;27639;48.674;9.242;2023-12-29T00:17:16;12.80;58.00
21502;DHT22;27639;48.674;9.242;2023-12-29T00:19:42;12.70;58.00
21502;DHT22;27639;48.674;9.242;2023-12-29T00:22:08;12.70;57.90
21502;DHT22;27639;48.674;9.242;2023-12-29T00:24:33;12.80;57.90
21502;DHT22;27639;48.674;9.242;2023-12-29T00:26:59;12.80;57.90
21502;DHT22;27639;48.674;9.242;2023-12-29T00:29:25;12.70;57.90
21502;DHT22;27639;48.674;9.242;2023-12-29T00:31:50;12.80;57.90
21502;DHT22;27639;48.674;9.242;2023-12-29T00:34:16;12.70;57.80
21502;DHT22;27639;48.674;9.242;2023-12-29T00:36:41;12.70;57.80
21502;DHT22;27639;48.674;9.242;2023-12-29T00:39:07;12.70;57.90
21502;DHT22;27639;48.674;9.242;2023-12-29T00:41:33;12.70;57.90
21502;DHT22;27639;48.674;9.242;2023-12-29T00:43:58;12.70;57.80
21502;DHT22;27639;48.674;9.242;2023-12-29T00:46:24;12.70;57.70
21502;DHT22;27639;48.674;9.242;2023-12-29T00:48:49;12.70;57.60
21502;DHT22;27639;48.674;9.242;2023-12-29T00:51:15;12.70;57.50
21502;DHT22;27639;48.674;9.242;2023-12-29T00:53:40;12.80;57.30
21502;DHT22;27639;48.674;9.242;2023-12-29T00:56:12;12.80;57.30
21502;DHT22;27639;48.674;9.242;2023-12-29T00:58:38;12.80;57.20
21502;DHT22;27639;48.674;9.242;2023-12-29T01:01:06;12.90;57.30
21502;DHT22;27639;48.674;9.242;2023-12-29T01:03:33;12.90;57.10
21502;DHT22;27639;48.674;9.242;2023-12-29T01:05:59;12.90;57.00
21502;DHT22;27639;48.674;9.242;2023-12-29T01:08:24;12.90;57.00
21502;DHT22;27639;48.674;9.242;2023-12-29T01:10:50;12.80;56.90
21502;DHT22;27639;48.674;9.242;2023-12-29T01:13:16;12.80;56.90
21502;DHT22;27639;48.674;9.242;2023-12-29T01:15:41;12.80;56.90
21502;DHT22;27639;48.674;9.242;2023-12-29T01:18:11;12.80;57.00
21502;DHT22;27639;48.674;9.242;2023-12-29T01:20:37;12.70;57.00
21502;DHT22;27639;48.674;9.242;2023-12-29T01:23:04;12.70;56.90
21502;DHT22;27639;48.674;9.242;2023-12-29T01:25:30;12.70;56.90
21502;DHT22;27639;48.674;9.242;2023-12-29T01:27:55;12.80;56.80
21502;DHT22;27639;48.674;9.242;2023-12-29T01:30:21;12.80;56.80
21502;DHT22;27639;48.674;9.242;2023-12-29T01:32:47;12.70;56.80
21502;DHT22;27639;48.674;9.242;2023-12-29T01:35:12;12.70;56.70
21502;DHT22;27639;48.674;9.242;2023-12-29T01:37:38;12.70;56.70
21502;DHT22;27639;48.674;9.242;2023-12-29T01:40:04;12.60;56.60
21502;DHT22;27639;48.674;9.242;2023-12-29T01:42:29;12.70;56.60
21502;DHT22;27639;48.674;9.242;2023-12-29T01:44:55;12.60;56.60
21502;DHT22;27639;48.674;9.242;2023-12-29T01:47:22;12.70;56.80
21502;DHT22;27639;48.674;9.242;2023-12-29T01:49:48;12.60;56.70
21502;DHT22;27639;48.674;9.242;2023-12-29T01:52:16;12.50;56.90
21502;DHT22;27639;48.674;9.242;2023-12-29T01:54:43;12.50;56.80
21502;DHT22;27639;48.674;9.242;2023-12-29T01:57:10;12.50;56.90
21502;DHT22;27639;48.674;9.242;2023-12-29T01:59:36;12.50;57.00
21502;DHT22;27639;48.674;9.242;2023-12-29T02:02:03;12.50;56.90
21502;DHT22;27639;48.674;9.242;2023-12-29T02:04:30;12.50;57.10
21502;DHT22;27639;48.674;9.242;2023-12-29T02:06:55;12.50;57.10
21502;DHT22;27639;48.674;9.242;2023-12-29T02:09:22;12.50;57.10
21502;DHT22;27639;48.674;9.242;2023-12-29T02:11:48;12.50;57.00
21502;DHT22;27639;48.674;9.242;2023-12-29T02:14:14;12.50;56.90
21502;DHT22;27639;48.674;9.242;2023-12-29T02:19:36;12.60;56.80
21502;DHT22;27639;48.674;9.242;2023-12-29T02:22:01;12.50;56.90
21502;DHT22;27639;48.674;9.242;2023-12-29T02:24:27;12.50;57.10
21502;DHT22;27639;48.674;9.242;2023-12-29T02:26:59;12.50;57.10
21502;DHT22;27639;48.674;9.242;2023-12-29T02:29:26;12.50;57.00
21502;DHT22;27639;48.674;9.242;2023-12-29T02:31:54;12.50;57.00
21502;DHT22;27639;48.674;9.242;2023-12-29T02:34:23;12.50;57.10
21502;DHT22;27639;48.674;9.242;2023-12-29T02:36:50;12.50;57.10
21502;DHT22;27639;48.674;9.242;2023-12-29T02:39:16;12.50;57.10
21502;DHT22;27639;48.674;9.242;2023-12-29T02:41:42;12.50;57.50
21502;DHT22;27639;48.674;9.242;2023-12-29T02:44:08;12.40;57.80
21502;DHT22;27639;48.674;9.242;2023-12-29T02:46:33;12.40;57.80
21502;DHT22;27639;48.674;9.242;2023-12-29T02:48:59;12.40;58.30
21502;DHT22;27639;48.674;9.242;2023-12-29T02:51:25;12.40;58.50
21502;DHT22;27639;48.674;9.242;2023-12-29T02:53:50;12.40;58.40
21502;DHT22;27639;48.674;9.242;2023-12-29T02:56:16;12.50;58.40
21502;DHT22;27639;48.674;9.242;2023-12-29T02:58:41;12.40;58.50
21502;DHT22;27639;48.674;9.242;2023-12-29T03:01:07;12.50;58.70
21502;DHT22;27639;48.674;9.242;2023-12-29T03:03:32;12.50;58.80
21502;DHT22;27639;48.674;9.242;2023-12-29T03:05:58;12.40;59.00
21502;DHT22;27639;48.674;9.242;2023-12-29T03:08:23;12.40;58.90
21502;DHT22;27639;48.674;9.242;2023-12-29T03:10:49;12.50;58.80
21502;DHT22;27639;48.674;9.242;2023-12-29T03:13:15;12.50;59.00
21502;DHT22;27639;48.674;9.242;2023-12-29T03:15:40;12.50;58.90
21502;DHT22;27639;48.674;9.242;2023-12-29T03:18:06;12.40;59.10
21502;DHT22;27639;48.674;9.242;2023-12-29T03:20:31;12.40;59.10
21502;DHT22;27639;48.674;9.242;2023-12-29T03:22:57;12.40;59.10
21502;DHT22;27639;48.674;9.242;2023-12-29T03:25:22;12.50;59.10
21502;DHT22;27639;48.674;9.242;2023-12-29T03:27:48;12.50;59.20
21502;DHT22;27639;48.674;9.242;2023-12-29T03:30:14;12.40;59.40
21502;DHT22;27639;48.674;9.242;2023-12-29T03:32:39;12.50;59.20
21502;DHT22;27639;48.674;9.242;2023-12-29T03:35:05;12.50;59.20
21502;DHT22;27639;48.674;9.242;2023-12-29T03:37:31;12.50;59.10
21502;DHT22;27639;48.674;9.242;2023-12-29T03:39:56;12.50;59.20
21502;DHT22;27639;48.674;9.242;2023-12-29T03:42:22;12.50;59.20
21502;DHT22;27639;48.674;9.242;2023-12-29T03:44:47;12.50;59.20
21502;DHT22;27639;48.674;9.242;2023-12-29T03:47:13;12.50;59.40
21502;DHT22;27639;48.674;9.242;2023-12-29T03:49:38;12.50;59.50
21502;DHT22;27639;48.674;9.242;2023-12-29T03:52:04;12.40;59.50
21502;DHT22;27639;48.674;9.242;2023-12-29T03:54:30;12.50;59.50
21502;DHT22;27639;48.674;9.242;2023-12-29T03:56:55;12.40;59.40
21502;DHT22;27639;48.674;9.242;2023-12-29T03:59:21;12.40;59.40
21502;DHT22;27639;48.674;9.242;2023-12-29T04:01:46;12.40;59.40
21502;DHT22;27639;48.674;9.242;2023-12-29T04:04:12;12.40;59.60
21502;DHT22;27639;48.674;9.242;2023-12-29T04:06:38;12.30;59.70
21502;DHT22;27639;48.674;9.242;2023-12-29T04:09:03;12.30;59.80
21502;DHT22;27639;48.674;9.242;2023-12-29T04:11:29;12.20;59.90
21502;DHT22;27639;48.674;9.242;2023-12-29T04:13:54;12.20;59.90
21502;DHT22;27639;48.674;9.242;2023-12-29T04:16:20;12.20;59.90
21502;DHT22;27639;48.674;9.242;2023-12-29T04:18:45;12.10;60.00
21502;DHT22;27639;48.674;9.242;2023-12-29T04:21:14;12.10;60.10
21502;DHT22;27639;48.674;9.242;2023-12-29T04:23:43;12.10;60.00
21502;DHT22;27639;48.674;9.242;2023-12-29T04:26:09;12.20;60.00
21502;DHT22;27639;48.674;9.242;2023-12-29T04:28:34;12.20;60.00
21502;DHT22;27639;48.674;9.242;2023-12-29T04:31:00;12.10;59.90
21502;DHT22;27639;48.674;9.242;2023-12-29T04:33:25;12.20;60.10
21502;DHT22;27639;48.674;9.242;2023-12-29T04:35:51;12.10;60.10
21502;DHT22;27639;48.674;9.242;2023-12-29T04:38:17;12.10;61.30
21502;DHT22;27639;48.674;9.242;2023-12-29T04:40:45;12.10;60.50
21502;DHT22;27639;48.674;9.242;2023-12-29T04:43:12;12.10;61.30
21502;DHT22;27639;48.674;9.242;2023-12-29T04:45:38;12.10;60.70
21502;DHT22;27639;48.674;9.242;2023-12-29T04:48:04;12.10;60.70
21502;DHT22;27639;48.674;9.242;2023-12-29T04:50:29;12.10;60.80
21502;DHT22;27639;48.674;9.242;2023-12-29T04:52:55;12.20;60.80
21502;DHT22;27639;48.674;9.242;2023-12-29T04:55:21;12.20;60.70
21502;DHT22;27639;48.674;9.242;2023-12-29T04:57:46;12.20;60.60
21502;DHT22;27639;48.674;9.242;2023-12-29T05:00:12;12.30;60.50
21502;DHT22;27639;48.674;9.242;2023-12-29T05:02:38;12.30;60.60
21502;DHT22;27639;48.674;9.242;2023-12-29T05:05:04;12.30;60.50
21502;DHT22;27639;48.674;9.242;2023-12-29T05:07:30;12.30;60.40
21502;DHT22;27639;48.674;9.242;2023-12-29T05:09:55;12.30;60.40
21502;DHT22;27639;48.674;9.242;2023-12-29T05:12:21;12.30;60.60
21502;DHT22;27639;48.674;9.242;2023-12-29T05:14:46;12.30;60.60
21502;DHT22;27639;48.674;9.242;2023-12-29T05:17:12;12.30;60.40
21502;DHT22;27639;48.674;9.242;2023-12-29T05:19:38;12.40;60.40
21502;DHT22;27639;48.674;9.242;2023-12-29T05:22:03;12.40;60.20
21502;DHT22;27639;48.674;9.242;2023-12-29T05:24:29;12.30;60.30
21502;DHT22;27639;48.674;9.242;2023-12-29T05:26:54;12.30;60.20
21502;DHT22;27639;48.674;9.242;2023-12-29T05:29:20;12.40;60.30
21502;DHT22;27639;48.674;9.242;2023-12-29T05:31:45;12.40;60.10
21502;DHT22;27639;48.674;9.242;2023-12-29T05:34:11;12.40;60.00
21502;DHT22;27639;48.674;9.242;2023-12-29T05:36:37;12.40;60.00
21502;DHT22;27639;48.674;9.242;2023-12-29T05:39:02;12.40;60.00
21502;DHT22;27639;48.674;9.242;2023-12-29T05:41:29;12.40;60.70
21502;DHT22;27639;48.674;9.242;2023-12-29T05:43:54;12.40;60.00
21502;DHT22;27639;48.674;9.242;2023-12-29T05:46:20;12.40;60.00
21502;DHT22;27639;48.674;9.242;2023-12-29T05:48:46;12.40;60.90
21502;DHT22;27639;48.674;9.242;2023-12-29T05:51:13;12.40;60.20
21502;DHT22;27639;48.674;9.242;2023-12-29T05:53:42;12.40;60.20
21502;DHT22;27639;48.674;9.242;2023-12-29T05:56:11;12.40;60.20
21502;DHT22;27639;48.674;9.242;2023-12-29T05:58:37;12.40;60.40
21502;DHT22;27639;48.674;9.242;2023-12-29T06:01:03;12.40;60.50
21502;DHT22;27639;48.674;9.242;2023-12-29T06:03:28;12.40;60.50
21502;DHT22;27639;48.674;9.242;2023-12-29T06:05:54;12.40;60.50
21502;DHT22;27639;48.674;9.242;2023-12-29T06:08:20;12.40;60.50
21502;DHT22;27639;48.674;9.242;2023-12-29T06:10:45;12.40;60.70
21502;DHT22;27639;48.674;9.242;2023-12-29T06:13:11;12.30;60.70
21502;DHT22;27639;48.674;9.242;2023-12-29T06:15:37;12.30;61.00
21502;DHT22;27639;48.674;9.242;2023-12-29T06:18:04;12.30;61.30
21502;DHT22;27639;48.674;9.242;2023-12-29T06:20:29;12.20;61.40
21502;DHT22;27639;48.674;9.242;2023-12-29T06:22:55;12.20;61.90
21502;DHT22;27639;48.674;9.242;2023-12-29T06:25:21;12.10;62.00
21502;DHT22;27639;48.674;9.242;2023-12-29T06:27:47;12.20;62.10
21502;DHT22;27639;48.674;9.242;2023-12-29T06:30:13;12.20;62.40
21502;DHT22;27639;48.674;9.242;2023-12-29T06:32:40;12.20;62.50
21502;DHT22;27639;48.674;9.242;2023-12-29T06:35:06;12.20;62.50
21502;DHT22;27639;48.674;9.242;2023-12-29T06:37:32;12.20;62.40
21502;DHT22;27639;48.674;9.242;2023-12-29T06:39:58;12.20;62.60
21502;DHT22;27639;48.674;9.242;2023-12-29T06:42:24;12.20;62.60
21502;DHT22;27639;48.674;9.242;2023-12-29T06:44:49;12.20;62.80
21502;DHT22;27639;48.674;9.242;2023-12-29T06:47:15;12.10;63.00
21502;DHT22;27639;48.674;9.242;2023-12-29T06:49:41;12.10;63.00
21502;DHT22;27639;48.674;9.242;2023-12-29T06:52:06;12.10;63.10
21502;DHT22;27639;48.674;9.242;2023-12-29T06:54:33;12.10;63.50
21502;DHT22;27639;48.674;9.242;2023-12-29T06:56:59;12.10;63.40
21502;DHT22;27639;48.674;9.242;2023-12-29T06:59:25;12.10;63.60
21502;DHT22;27639;48.674;9.242;2023-12-29T07:01:50;12.10;63.40
21502;DHT22;27639;48.674;9.242;2023-12-29T07:04:16;12.10;63.40
21502;DHT22;27639;48.674;9.242;2023-12-29T07:06:42;12.10;63.90
21502;DHT22;27639;48.674;9.242;2023-12-29T07:09:08;12.10;64.40
21502;DHT22;27639;48.674;9.242;2023-12-29T07:11:34;12.20;63.90
21502;DHT22;27639;48.674;9.242;2023-12-29T07:14:00;12.20;63.80
21502;DHT22;27639;48.674;9.242;2023-12-29T07:16:26;12.20;63.60
21502;DHT22;27639;48.674;9.242;2023-12-29T07:18:52;12.20;63.60
21502;DHT22;27639;48.674;9.242;2023-12-29T07:21:17;12.20;63.60
21502;DHT22;27639;48.674;9.242;2023-12-29T07:23:43;12.20;63.80
21502;DHT22;27639;48.674;9.242;2023-12-29T07:26:09;12.20;63.80
21502;DHT22;27639;48.674;9.242;2023-12-29T07:28:35;12.10;63.90
21502;DHT22;27639;48.674;9.242;2023-12-29T07:31:01;12.20;64.00
21502;DHT22;27639;48.674;9.242;2023-12-29T07:33:27;12.20;64.00
21502;DHT22;27639;48.674;9.242;2023-12-29T07:35:53;12.30;63.90
21502;DHT22;27639;48.674;9.242;2023-12-29T07:38:18;12.30;63.70
21502;DHT22;27639;48.674;9.242;2023-12-29T07:40:44;12.30;63.70
21502;DHT22;27639;48.674;9.242;2023-12-29T07:43:10;12.30;63.90
21502;DHT22;27639;48.674;9.242;2023-12-29T07:45:35;12.30;63.70
21502;DHT22;27639;48.674;9.242;2023-12-29T07:48:02;12.40;63.80
21502;DHT22;27639;48.674;9.242;2023-12-29T07:50:28;12.40;64.00
21502;DHT22;27639;48.674;9.242;2023-12-29T07:52:54;12.40;64.30
21502;DHT22;27639;48.674;9.242;2023-12-29T07:55:19;12.40;64.40
21502;DHT22;27639;48.674;9.242;2023-12-29T07:57:45;12.40;64.30
21502;DHT22;27639;48.674;9.242;2023-12-29T08:00:13;12.40;64.50
21502;DHT22;27639;48.674;9.242;2023-12-29T08:02:39;12.50;64.60
21502;DHT22;27639;48.674;9.242;2023-12-29T08:05:06;12.50;64.50
21502;DHT22;27639;48.674;9.242;2023-12-29T08:07:34;12.60;64.40
21502;DHT22;27639;48.674;9.242;2023-12-29T08:10:00;12.60;64.30
21502;DHT22;27639;48.674;9.242;2023-12-29T08:12:25;12.70;64.30
21502;DHT22;27639;48.674;9.242;2023-12-29T08:14:51;12.70;64.20
21502;DHT22;27639;48.674;9.242;2023-12-29T08:17:17;12.70;64.20
21502;DHT22;27639;48.674;9.242;2023-12-29T08:19:43;12.70;64.20
21502;DHT22;27639;48.674;9.242;2023-12-29T08:22:08;12.80;65.00
21502;DHT22;27639;48.674;9.242;2023-12-29T08:24:34;12.80;64.30
21502;DHT22;27639;48.674;9.242;2023-12-29T08:27:00;12.80;64.20
21502;DHT22;27639;48.674;9.242;2023-12-29T08:29:25;12.90;64.30
21502;DHT22;27639;48.674;9.242;2023-12-29T08:31:51;12.90;64.30
21502;DHT22;27639;48.674;9.242;2023-12-29T08:34:16;12.90;64.30
21502;DHT22;27639;48.674;9.242;2023-12-29T08:36:42;12.90;64.40
21502;DHT22;27639;48.674;9.242;2023-12-29T08:39:08;12.90;64.40
21502;DHT22;27639;48.674;9.242;2023-12-29T08:41:34;13.00;64.50
21502;DHT22;27639;48.674;9.242;2023-12-29T08:44:00;13.00;64.40
21502;DHT22;27639;48.674;9.242;2023-12-29T08:46:26;13.10;64.40
21502;DHT22;27639;48.674;9.242;2023-12-29T08:48:52;13.10;64.20
21502;DHT22;27639;48.674;9.242;2023-12-29T08:51:17;13.20;64.10
21502;DHT22;27639;48.674;9.242;2023-12-29T08:53:43;13.20;64.00
21502;DHT22;27639;48.674;9.242;2023-12-29T08:56:08;13.20;63.90
21502;DHT22;27639;48.674;9.242;2023-12-29T08:58:34;13.30;63.90
21502;DHT22;27639;48.674;9.242;2023-12-29T09:00:59;13.30;63.90
21502;DHT22;27639;48.674;9.242;2023-12-29T09:03:25;13.40;63.60
21502;DHT22;27639;48.674;9.242;2023-12-29T09:05:50;13.50;63.40
21502;DHT22;27639;48.674;9.242;2023-12-29T09:08:16;13.40;63.10
21502;DHT22;27639;48.674;9.242;2023-12-29T09:10:42;13.40;62.90
21502;DHT22;27639;48.674;9.242;2023-12-29T09:13:07;13.40;62.80
21502;DHT22;27639;48.674;9.242;2023-12-29T09:15:34;13.30;62.90
21502;DHT22;27639;48.674;9.242;2023-12-29T09:17:59;13.30;62.70
21502;DHT22;27639;48.674;9.242;2023-12-29T09:20:25;13.30;62.80
21502;DHT22;27639;48.674;9.242;2023-12-29T09:22:51;13.30;62.70
21502;DHT22;27639;48.674;9.242;2023-12-29T09:25:17;13.40;62.60
21502;DHT22;27639;48.674;9.242;2023-12-29T09:27:42;13.40;62.60
21502;DHT22;27639;48.674;9.242;2023-12-29T09:30:10;13.30;62.60
21502;DHT22;27639;48.674;9.242;2023-12-29T09:32:35;13.30;62.80
21502;DHT22;27639;48.674;9.242;2023-12-29T09:35:01;13.30;62.80
21502;DHT22;27639;48.674;9.242;2023-12-29T09:37:27;13.40;62.80
21502;DHT22;27639;48.674;9.242;2023-12-29T09:39:52;13.30;62.70
21502;DHT22;27639;48.674;9.242;2023-12-29T09:42:22;13.40;62.80
21502;DHT22;27639;48.674;9.242;2023-12-29T09:44:51;13.40;62.60
21502;DHT22;27639;48.674;9.242;2023-12-29T09:47:22;13.50;62.90
21502;DHT22;27639;48.674;9.242;2023-12-29T09:49:52;13.50;63.00
21502;DHT22;27639;48.674;9.242;2023-12-29T09:52:21;13.50;62.70
21502;DHT22;27639;48.674;9.242;2023-12-29T09:54:52;13.50;62.70
21502;DHT22;27639;48.674;9.242;2023-12-29T09:57:18;13.60;62.50
21502;DHT22;27639;48.674;9.242;2023-12-29T09:59:44;13.60;62.40
21502;DHT22;27639;48.674;9.242;2023-12-29T10:02:15;13.60;62.40
21502;DHT22;27639;48.674;9.242;2023-12-29T10:04:43;13.60;62.30
21502;DHT22;27639;48.674;9.242;2023-12-29T10:07:15;13.60;62.50
21502;DHT22;27639;48.674;9.242;2023-12-29T10:09:45;13.60;62.60
21502;DHT22;27639;48.674;9.242;2023-12-29T10:12:11;13.60;62.60
21502;DHT22;27639;48.674;9.242;2023-12-29T10:14:54;13.60;62.60
21502;DHT22;27639;48.674;9.242;2023-12-29T10:17:35;13.50;63.10
21502;DHT22;27639;48.674;9.242;2023-12-29T10:20:11;13.60;62.80
21502;DHT22;27639;48.674;9.242;2023-12-29T10:22:54;13.60;62.80
21502;DHT22;27639;48.674;9.242;2023-12-29T10:25:25;13.60;62.70
21502;DHT22;27639;48.674;9.242;2023-12-29T10:27:51;13.70;62.80
21502;DHT22;27639;48.674;9.242;2023-12-29T10:30:17;13.70;62.70
21502;DHT22;27639;48.674;9.242;2023-12-29T10:32:47;13.80;62.60
21502;DHT22;27639;48.674;9.242;2023-12-29T10:35:14;13.90;62.50
21502;DHT22;27639;48.674;9.242;2023-12-29T10:37:40;14.00;62.30
21502;DHT22;27639;48.674;9.242;2023-12-29T10:40:06;14.00;61.90
21502;DHT22;27639;48.674;9.242;2023-12-29T10:42:32;14.00;61.30
21502;DHT22;27639;48.674;9.242;2023-12-29T10:45:06;14.00;60.90
21502;DHT22;27639;48.674;9.242;2023-12-29T10:47:32;14.10;61.00
21502;DHT22;27639;48.674;9.242;2023-12-29T10:50:02;14.10;61.00
21502;DHT22;27639;48.674;9.242;2023-12-29T10:52:29;14.20;61.10
21502;DHT22;27639;48.674;9.242;2023-12-29T10:55:11;14.20;61.00
21502;DHT22;27639;48.674;9.242;2023-12-29T10:57:37;14.30;60.60
21502;DHT22;27639;48.674;9.242;2023-12-29T11:00:04;14.40;60.70
21502;DHT22;27639;48.674;9.242;2023-12-29T11:02:31;14.50;60.50
21502;DHT22;27639;48.674;9.242;2023-12-29T11:05:08;14.50;60.00
21502;DHT22;27639;48.674;9.242;2023-12-29T11:07:38;14.60;59.80
21502;DHT22;27639;48.674;9.242;2023-12-29T11:10:06;14.70;60.00
21502;DHT22;27639;48.674;9.242;2023-12-29T11:12:33;14.70;59.50
21502;DHT22;27639;48.674;9.242;2023-12-29T11:15:04;14.60;58.90
21502;DHT22;27639;48.674;9.242;2023-12-29T11:17:31;14.60;59.00
21502;DHT22;27639;48.674;9.242;2023-12-29T11:20:03;14.70;58.90
21502;DHT22;27639;48.674;9.242;2023-12-29T11:22:30;14.80;58.90
21502;DHT22;27639;48.674;9.242;2023-12-29T11:24:57;14.90;58.90
21502;DHT22;27639;48.674;9.242;2023-12-29T11:27:29;15.00;58.20
21502;DHT22;27639;48.674;9.242;2023-12-29T11:29:59;15.00;57.90
21502;DHT22;27639;48.674;9.242;2023-12-29T11:32:50;15.10;58.10
21502;DHT22;27639;48.674;9.242;2023-12-29T11:35:21;15.20;57.70
21502;DHT22;27639;48.674;9.242;2023-12-29T11:40:48;15.30;57.20
21502;DHT22;27639;48.674;9.242;2023-12-29T11:43:16;15.40;56.70
21502;DHT22;27639;48.674;9.242;2023-12-29T11:45:42;15.50;56.90
21502;DHT22;27639;48.674;9.242;2023-12-29T11:48:08;15.40;56.50
21502;DHT22;27639;48.674;9.242;2023-12-29T11:50:35;15.50;56.50
21502;DHT22;27639;48.674;9.242;2023-12-29T11:53:02;15.40;55.80
21502;DHT22;27639;48.674;9.242;2023-12-29T11:55:36;15.40;56.00
21502;DHT22;27639;48.674;9.242;2023-12-29T11:58:03;15.40;55.60
21502;DHT22;27639;48.674;9.242;2023-12-29T12:00:46;15.40;55.40
21502;DHT22;27639;48.674;9.242;2023-12-29T12:03:24;15.50;54.70
21502;DHT22;27639;48.674;9.242;2023-12-29T12:05:51;15.50;54.70
21502;DHT22;27639;48.674;9.242;2023-12-29T12:08:36;15.50;54.80
21502;DHT22;27639;48.674;9.242;2023-12-29T12:13:55;15.40;54.60
21502;DHT22;27639;48.674;9.242;2023-12-29T12:19:10;15.50;54.70
21502;DHT22;27639;48.674;9.242;2023-12-29T12:21:37;15.40;54.60
21502;DHT22;27639;48.674;9.242;2023-12-29T12:24:04;15.50;54.70
21502;DHT22;27639;48.674;9.242;2023-12-29T12:26:31;15.60;54.60
21502;DHT22;27639;48.674;9.242;2023-12-29T12:28:57;15.60;54.50
21502;DHT22;27639;48.674;9.242;2023-12-29T12:31:23;15.60;54.50
21502;DHT22;27639;48.674;9.242;2023-12-29T12:33:58;15.50;54.20
21502;DHT22;27639;48.674;9.242;2023-12-29T12:36:26;15.40;54.20
21502;DHT22;27639;48.674;9.242;2023-12-29T12:38:56;15.30;54.30
21502;DHT22;27639;48.674;9.242;2023-12-29T12:41:26;15.20;54.40
21502;DHT22;27639;48.674;9.242;2023-12-29T12:44:18;15.20;54.40
21502;DHT22;27639;48.674;9.242;2023-12-29T12:46:51;15.20;54.20
21502;DHT22;27639;48.674;9.242;2023-12-29T12:49:18;15.20;54.20
21502;DHT22;27639;48.674;9.242;2023-12-29T12:51:45;15.20;54.30
21502;DHT22;27639;48.674;9.242;2023-12-29T12:54:11;15.10;54.00
21502;DHT22;27639;48.674;9.242;2023-12-29T12:56:41;15.10;54.10
21502;DHT22;27639;48.674;9.242;2023-12-29T12:59:07;15.10;54.00
21502;DHT22;27639;48.674;9.242;2023-12-29T13:01:37;15.00;53.90
21502;DHT22;27639;48.674;9.242;2023-12-29T13:04:03;15.00;54.00
21502;DHT22;27639;48.674;9.242;2023-12-29T13:06:31;15.00;54.10
21502;DHT22;27639;48.674;9.242;2023-12-29T13:08:58;15.10;54.00
21502;DHT22;27639;48.674;9.242;2023-12-29T13:11:24;15.10;53.70
21502;DHT22;27639;48.674;9.242;2023-12-29T13:13:53;15.10;53.70
21502;DHT22;27639;48.674;9.242;2023-12-29T13:16:34;15.10;53.50
21502;DHT22;27639;48.674;9.242;2023-12-29T13:19:21;15.10;53.60
21502;DHT22;27639;48.674;9.242;2023-12-29T13:21:51;15.20;53.50
21502;DHT22;27639;48.674;9.242;2023-12-29T13:24:20;15.30;53.80
21502;DHT22;27639;48.674;9.242;2023-12-29T13:26:47;15.30;53.70
21502;DHT22;27639;48.674;9.242;2023-12-29T13:29:18;15.30;53.70
21502;DHT22;27639;48.674;9.242;2023-12-29T13:31:45;15.30;53.60
21502;DHT22;27639;48.674;9.242;2023-12-29T13:34:15;15.30;53.40
21502;DHT22;27639;48.674;9.242;2023-12-29T13:36:49;15.30;53.50
21502;DHT22;27639;48.674;9.242;2023-12-29T13:41:45;15.30;53.40
21502;DHT22;27639;48.674;9.242;2023-12-29T13:44:11;15.40;53.40
21502;DHT22;27639;48.674;9.242;2023-12-29T13:46:36;15.40;53.30
21502;DHT22;27639;48.674;9.242;2023-12-29T13:49:04;15.40;53.00
21502;DHT22;27639;48.674;9.242;2023-12-29T13:51:30;15.30;52.90
21502;DHT22;27639;48.674;9.242;2023-12-29T13:54:02;15.40;53.00
21502;DHT22;27639;48.674;9.242;2023-12-29T13:56:28;15.40;52.80
21502;DHT22;27639;48.674;9.242;2023-12-29T13:58:54;15.40;52.80
21502;DHT22;27639;48.674;9.242;2023-12-29T14:01:20;15.30;52.40
21502;DHT22;27639;48.674;9.242;2023-12-29T14:03:58;15.30;52.40
21502;DHT22;27639;48.674;9.242;2023-12-29T14:06:41;15.20;52.20
21502;DHT22;27639;48.674;9.242;2023-12-29T14:09:15;15.20;52.10
21502;DHT22;27639;48.674;9.242;2023-12-29T14:11:48;15.20;52.20
21502;DHT22;27639;48.674;9.242;2023-12-29T14:14:14;15.20;51.50
21502;DHT22;27639;48.674;9.242;2023-12-29T14:16:40;15.10;51.70
21502;DHT22;27639;48.674;9.242;2023-12-29T14:19:06;15.20;51.80
21502;DHT22;27639;48.674;9.242;2023-12-29T14:21:34;15.20;51.70
21502;DHT22;27639;48.674;9.242;2023-12-29T14:24:29;15.10;51.50
21502;DHT22;27639;48.674;9.242;2023-12-29T14:26:56;15.10;51.30
21502;DHT22;27639;48.674;9.242;2023-12-29T14:29:22;15.10;51.30
21502;DHT22;27639;48.674;9.242;2023-12-29T14:31:49;15.20;51.40
21502;DHT22;27639;48.674;9.242;2023-12-29T14:34:18;15.10;50.90
21502;DHT22;27639;48.674;9.242;2023-12-29T14:36:44;15.00;50.60
21502;DHT22;27639;48.674;9.242;2023-12-29T14:39:10;14.90;50.60
21502;DHT22;27639;48.674;9.242;2023-12-29T14:41:36;14.90;50.70
21502;DHT22;27639;48.674;9.242;2023-12-29T14:44:02;14.90;50.70
21502;DHT22;27639;48.674;9.242;2023-12-29T14:46:27;14.90;50.60
21502;DHT22;27639;48.674;9.242;2023-12-29T14:48:54;14.90;50.70
21502;DHT22;27639;48.674;9.242;2023-12-29T14:51:21;14.90;50.50
21502;DHT22;27639;48.674;9.242;2023-12-29T14:53:48;14.90;50.60
21502;DHT22;27639;48.674;9.242;2023-12-29T14:56:15;14.90;50.50
21502;DHT22;27639;48.674;9.242;2023-12-29T14:58:40;14.80;50.20
21502;DHT22;27639;48.674;9.242;2023-12-29T15:01:07;14.80;50.20
21502;DHT22;27639;48.674;9.242;2023-12-29T15:03:34;14.70;49.90
21502;DHT22;27639;48.674;9.242;2023-12-29T15:06:00;14.60;50.10
21502;DHT22;27639;48.674;9.242;2023-12-29T15:08:26;14.60;50.00
21502;DHT22;27639;48.674;9.242;2023-12-29T15:10:53;14.60;50.10
21502;DHT22;27639;48.674;9.242;2023-12-29T15:13:19;14.50;50.00
21502;DHT22;27639;48.674;9.242;2023-12-29T15:15:44;14.50;49.90
21502;DHT22;27639;48.674;9.242;2023-12-29T15:18:10;14.50;49.80
21502;DHT22;27639;48.674;9.242;2023-12-29T15:20:36;14.40;49.60
21502;DHT22;27639;48.674;9.242;2023-12-29T15:23:01;14.30;49.50
21502;DHT22;27639;48.674;9.242;2023-12-29T15:25:28;14.30;49.40
21502;DHT22;27639;48.674;9.242;2023-12-29T15:27:53;14.30;49.40
21502;DHT22;27639;48.674;9.242;2023-12-29T15:30:19;14.20;49.30
21502;DHT22;27639;48.674;9.242;2023-12-29T15:32:45;14.20;49.20
21502;DHT22;27639;48.674;9.242;2023-12-29T15:35:10;14.10;49.20
21502;DHT22;27639;48.674;9.242;2023-12-29T15:37:36;14.10;49.30
21502;DHT22;27639;48.674;9.242;2023-12-29T15:40:02;14.00;49.30
21502;DHT22;27639;48.674;9.242;2023-12-29T15:42:32;14.00;49.30